sensor_id;sensor_type;location;lat;lon;timestamp;P1;durP1;ratioP1;P2;durP2;ratioP2
18142;SDS011;9197;50.930;3.140;2023-06-22T00:02:14;6.53;;;5.28;;
18142;SDS011;9197;50.930;3.140;2023-06-22T00:04:41;7.00;;;5.28;;
18142;SDS011;9197;50.930;3.140;2023-06-22T00:07:08;8.98;;;5.88;;
18142;SDS011;9197;50.930;3.140;2023-06-22T00:09:37;7.47;;;5.72;;
18142;SDS011;9197;50.930;3.140;2023-06-22T00:12:04;8.90;;;6.10;;
18142;SDS011;9197;50.930;3.140;2023-06-22T00:14:32;8.40;;;6.43;;
18142;SDS011;9197;50.930;3.140;2023-06-22T00:16:59;7.13;;;5.70;;
18142;SDS011;9197;50.930;3.140;2023-06-22T00:19:26;11.68;;;7.22;;
18142;SDS011;9197;50.930;3.140;2023-06-22T00:21:53;8.25;;;5.63;;
18142;SDS011;9197;50.930;3.140;2023-06-22T00:24:25;7.18;;;6.32;;
18142;SDS011;9197;50.930;3.140;2023-06-22T00:26:54;9.60;;;6.43;;
18142;SDS011;9197;50.930;3.140;2023-06-22T00:29:21;7.63;;;5.78;;
18142;SDS011;9197;50.930;3.140;2023-06-22T00:31:48;8.25;;;6.32;;
18142;SDS011;9197;50.930;3.140;2023-06-22T00:34:15;8.07;;;6.80;;
18142;SDS011;9197;50.930;3.140;2023-06-22T00:36:42;9.63;;;7.57;;
18142;SDS011;9197;50.930;3.140;2023-06-22T00:39:09;9.40;;;7.32;;
18142;SDS011;9197;50.930;3.140;2023-06-22T00:41:37;7.97;;;7.00;;
18142;SDS011;9197;50.930;3.140;2023-06-22T00:44:05;8.35;;;6.35;;
18142;SDS011;9197;50.930;3.140;2023-06-22T00:46:33;8.25;;;7.32;;
18142;SDS011;9197;50.930;3.140;2023-06-22T00:49:00;7.30;;;6.60;;
18142;SDS011;9197;50.930;3.140;2023-06-22T00:51:30;7.05;;;6.32;;
18142;SDS011;9197;50.930;3.140;2023-06-22T00:53:58;7.25;;;6.50;;
18142;SDS011;9197;50.930;3.140;2023-06-22T00:56:25;8.80;;;7.05;;
18142;SDS011;9197;50.930;3.140;2023-06-22T00:58:55;9.82;;;7.32;;
18142;SDS011;9197;50.930;3.140;2023-06-22T01:01:24;8.80;;;7.47;;
18142;SDS011;9197;50.930;3.140;2023-06-22T01:03:51;8.00;;;6.90;;
18142;SDS011;9197;50.930;3.140;2023-06-22T01:06:22;8.85;;;7.05;;
18142;SDS011;9197;50.930;3.140;2023-06-22T01:08:54;8.82;;;8.02;;
18142;SDS011;9197;50.930;3.140;2023-06-22T01:11:25;12.07;;;7.60;;
18142;SDS011;9197;50.930;3.140;2023-06-22T01:13:54;11.73;;;7.80;;
18142;SDS011;9197;50.930;3.140;2023-06-22T01:16:26;8.68;;;7.75;;
18142;SDS011;9197;50.930;3.140;2023-06-22T01:18:55;10.02;;;8.02;;
18142;SDS011;9197;50.930;3.140;2023-06-22T01:21:24;7.82;;;7.03;;
18142;SDS011;9197;50.930;3.140;2023-06-22T01:23:56;9.10;;;8.05;;
18142;SDS011;9197;50.930;3.140;2023-06-22T01:26:27;13.63;;;8.07;;
18142;SDS011;9197;50.930;3.140;2023-06-22T01:28:57;12.23;;;8.55;;
18142;SDS011;9197;50.930;3.140;2023-06-22T01:31:26;12.73;;;7.88;;
18142;SDS011;9197;50.930;3.140;2023-06-22T01:33:55;11.82;;;8.30;;
18142;SDS011;9197;50.930;3.140;2023-06-22T01:36:24;9.45;;;8.50;;
18142;SDS011;9197;50.930;3.140;2023-06-22T01:38:51;12.40;;;8.52;;
18142;SDS011;9197;50.930;3.140;2023-06-22T01:41:19;11.48;;;9.57;;
18142;SDS011;9197;50.930;3.140;2023-06-22T01:43:46;16.90;;;8.43;;
18142;SDS011;9197;50.930;3.140;2023-06-22T01:46:16;9.45;;;7.88;;
18142;SDS011;9197;50.930;3.140;2023-06-22T01:48:44;9.25;;;7.78;;
18142;SDS011;9197;50.930;3.140;2023-06-22T01:51:11;9.60;;;8.60;;
18142;SDS011;9197;50.930;3.140;2023-06-22T01:53:39;11.63;;;8.27;;
18142;SDS011;9197;50.930;3.140;2023-06-22T01:56:07;9.63;;;8.18;;
18142;SDS011;9197;50.930;3.140;2023-06-22T01:58:34;10.52;;;8.65;;
18142;SDS011;9197;50.930;3.140;2023-06-22T02:01:05;9.65;;;8.75;;
18142;SDS011;9197;50.930;3.140;2023-06-22T02:03:38;8.77;;;7.88;;
18142;SDS011;9197;50.930;3.140;2023-06-22T02:06:08;11.63;;;8.68;;
18142;SDS011;9197;50.930;3.140;2023-06-22T02:08:38;9.15;;;8.02;;
18142;SDS011;9197;50.930;3.140;2023-06-22T02:11:07;11.38;;;8.13;;
18142;SDS011;9197;50.930;3.140;2023-06-22T02:13:35;9.27;;;8.07;;
18142;SDS011;9197;50.930;3.140;2023-06-22T02:16:03;12.32;;;8.52;;
18142;SDS011;9197;50.930;3.140;2023-06-22T02:18:30;12.80;;;8.73;;
18142;SDS011;9197;50.930;3.140;2023-06-22T02:20:59;10.18;;;8.68;;
18142;SDS011;9197;50.930;3.140;2023-06-22T02:23:26;10.57;;;8.95;;
18142;SDS011;9197;50.930;3.140;2023-06-22T02:25:53;9.90;;;9.00;;
18142;SDS011;9197;50.930;3.140;2023-06-22T02:28:20;11.43;;;9.17;;
18142;SDS011;9197;50.930;3.140;2023-06-22T02:30:48;11.05;;;9.68;;
18142;SDS011;9197;50.930;3.140;2023-06-22T02:33:15;10.40;;;9.27;;
18142;SDS011;9197;50.930;3.140;2023-06-22T02:35:42;12.73;;;10.25;;
18142;SDS011;9197;50.930;3.140;2023-06-22T02:38:14;11.57;;;9.40;;
18142;SDS011;9197;50.930;3.140;2023-06-22T02:40:42;11.05;;;9.95;;
18142;SDS011;9197;50.930;3.140;2023-06-22T02:43:09;14.80;;;10.80;;
18142;SDS011;9197;50.930;3.140;2023-06-22T02:45:37;12.30;;;11.00;;
18142;SDS011;9197;50.930;3.140;2023-06-22T02:48:04;14.07;;;11.40;;
18142;SDS011;9197;50.930;3.140;2023-06-22T02:50:31;14.80;;;12.20;;
18142;SDS011;9197;50.930;3.140;2023-06-22T02:52:58;15.70;;;11.70;;
18142;SDS011;9197;50.930;3.140;2023-06-22T02:55:27;16.40;;;12.23;;
18142;SDS011;9197;50.930;3.140;2023-06-22T02:57:54;16.58;;;13.80;;
18142;SDS011;9197;50.930;3.140;2023-06-22T03:00:24;15.37;;;12.80;;
18142;SDS011;9197;50.930;3.140;2023-06-22T03:02:55;15.38;;;12.15;;
18142;SDS011;9197;50.930;3.140;2023-06-22T03:05:23;15.43;;;12.23;;
18142;SDS011;9197;50.930;3.140;2023-06-22T03:07:51;16.83;;;12.13;;
18142;SDS011;9197;50.930;3.140;2023-06-22T03:10:18;16.67;;;11.87;;
18142;SDS011;9197;50.930;3.140;2023-06-22T03:12:46;13.27;;;11.30;;
18142;SDS011;9197;50.930;3.140;2023-06-22T03:15:14;14.63;;;11.27;;
18142;SDS011;9197;50.930;3.140;2023-06-22T03:17:42;15.73;;;11.07;;
18142;SDS011;9197;50.930;3.140;2023-06-22T03:20:09;14.13;;;10.67;;
18142;SDS011;9197;50.930;3.140;2023-06-22T03:22:38;13.77;;;10.93;;
18142;SDS011;9197;50.930;3.140;2023-06-22T03:25:06;14.00;;;10.57;;
18142;SDS011;9197;50.930;3.140;2023-06-22T03:27:37;10.83;;;9.40;;
18142;SDS011;9197;50.930;3.140;2023-06-22T03:30:08;11.23;;;9.83;;
18142;SDS011;9197;50.930;3.140;2023-06-22T03:32:35;13.10;;;11.10;;
18142;SDS011;9197;50.930;3.140;2023-06-22T03:35:03;11.53;;;10.33;;
18142;SDS011;9197;50.930;3.140;2023-06-22T03:37:31;12.13;;;10.40;;
18142;SDS011;9197;50.930;3.140;2023-06-22T03:39:58;10.93;;;9.70;;
18142;SDS011;9197;50.930;3.140;2023-06-22T03:42:25;12.43;;;10.10;;
18142;SDS011;9197;50.930;3.140;2023-06-22T03:44:53;13.03;;;9.70;;
18142;SDS011;9197;50.930;3.140;2023-06-22T03:47:22;12.90;;;10.10;;
18142;SDS011;9197;50.930;3.140;2023-06-22T03:49:50;17.13;;;9.63;;
18142;SDS011;9197;50.930;3.140;2023-06-22T03:52:20;12.23;;;10.50;;
18142;SDS011;9197;50.930;3.140;2023-06-22T03:54:48;11.13;;;9.83;;
18142;SDS011;9197;50.930;3.140;2023-06-22T03:57:15;11.57;;;9.87;;
18142;SDS011;9197;50.930;3.140;2023-06-22T03:59:42;12.43;;;9.70;;
18142;SDS011;9197;50.930;3.140;2023-06-22T04:02:09;11.33;;;10.20;;
18142;SDS011;9197;50.930;3.140;2023-06-22T04:04:38;13.77;;;10.10;;
18142;SDS011;9197;50.930;3.140;2023-06-22T04:07:05;11.80;;;9.70;;
18142;SDS011;9197;50.930;3.140;2023-06-22T04:09:32;13.10;;;9.73;;
18142;SDS011;9197;50.930;3.140;2023-06-22T04:12:00;12.00;;;9.33;;
18142;SDS011;9197;50.930;3.140;2023-06-22T04:14:28;12.83;;;9.83;;
18142;SDS011;9197;50.930;3.140;2023-06-22T04:16:55;12.80;;;9.57;;
18142;SDS011;9197;50.930;3.140;2023-06-22T04:19:22;30.77;;;11.07;;
18142;SDS011;9197;50.930;3.140;2023-06-22T04:21:50;12.73;;;10.20;;
18142;SDS011;9197;50.930;3.140;2023-06-22T04:24:18;12.43;;;9.57;;
18142;SDS011;9197;50.930;3.140;2023-06-22T04:26:45;13.20;;;9.27;;
18142;SDS011;9197;50.930;3.140;2023-06-22T04:29:12;10.77;;;8.23;;
18142;SDS011;9197;50.930;3.140;2023-06-22T04:31:39;10.95;;;9.10;;
18142;SDS011;9197;50.930;3.140;2023-06-22T04:34:07;13.20;;;8.32;;
18142;SDS011;9197;50.930;3.140;2023-06-22T04:36:34;10.43;;;9.07;;
18142;SDS011;9197;50.930;3.140;2023-06-22T04:39:07;11.47;;;7.97;;
18142;SDS011;9197;50.930;3.140;2023-06-22T04:41:35;11.80;;;9.25;;
18142;SDS011;9197;50.930;3.140;2023-06-22T04:44:10;10.95;;;8.00;;
18142;SDS011;9197;50.930;3.140;2023-06-22T04:46:38;11.43;;;7.78;;
18142;SDS011;9197;50.930;3.140;2023-06-22T04:49:05;9.45;;;7.45;;
18142;SDS011;9197;50.930;3.140;2023-06-22T04:51:35;12.98;;;8.05;;
18142;SDS011;9197;50.930;3.140;2023-06-22T04:54:03;9.05;;;7.75;;
18142;SDS011;9197;50.930;3.140;2023-06-22T04:56:32;9.35;;;8.07;;
18142;SDS011;9197;50.930;3.140;2023-06-22T04:58:59;14.23;;;8.50;;
18142;SDS011;9197;50.930;3.140;2023-06-22T05:01:26;9.68;;;7.40;;
18142;SDS011;9197;50.930;3.140;2023-06-22T05:03:54;9.05;;;7.13;;
18142;SDS011;9197;50.930;3.140;2023-06-22T05:06:21;10.63;;;7.00;;
18142;SDS011;9197;50.930;3.140;2023-06-22T05:08:50;11.05;;;7.90;;
18142;SDS011;9197;50.930;3.140;2023-06-22T05:11:17;7.03;;;6.32;;
18142;SDS011;9197;50.930;3.140;2023-06-22T05:13:46;7.63;;;5.80;;
18142;SDS011;9197;50.930;3.140;2023-06-22T05:16:13;7.68;;;6.88;;
18142;SDS011;9197;50.930;3.140;2023-06-22T05:18:40;11.02;;;7.18;;
18142;SDS011;9197;50.930;3.140;2023-06-22T05:21:08;9.90;;;6.63;;
18142;SDS011;9197;50.930;3.140;2023-06-22T05:23:35;7.38;;;6.53;;
18142;SDS011;9197;50.930;3.140;2023-06-22T05:26:03;9.18;;;5.95;;
18142;SDS011;9197;50.930;3.140;2023-06-22T05:28:30;12.77;;;7.25;;
18142;SDS011;9197;50.930;3.140;2023-06-22T05:30:58;11.70;;;7.25;;
18142;SDS011;9197;50.930;3.140;2023-06-22T05:33:26;10.98;;;7.15;;
18142;SDS011;9197;50.930;3.140;2023-06-22T05:35:53;10.18;;;6.78;;
18142;SDS011;9197;50.930;3.140;2023-06-22T05:38:20;8.27;;;6.47;;
18142;SDS011;9197;50.930;3.140;2023-06-22T05:40:48;8.88;;;6.75;;
18142;SDS011;9197;50.930;3.140;2023-06-22T05:43:15;10.68;;;7.20;;
18142;SDS011;9197;50.930;3.140;2023-06-22T05:45:42;7.20;;;6.50;;
18142;SDS011;9197;50.930;3.140;2023-06-22T05:48:11;8.70;;;6.82;;
18142;SDS011;9197;50.930;3.140;2023-06-22T05:50:38;6.90;;;6.20;;
18142;SDS011;9197;50.930;3.140;2023-06-22T05:53:05;7.07;;;6.38;;
18142;SDS011;9197;50.930;3.140;2023-06-22T05:55:33;10.73;;;6.90;;
18142;SDS011;9197;50.930;3.140;2023-06-22T05:58:00;6.78;;;6.07;;
18142;SDS011;9197;50.930;3.140;2023-06-22T06:00:28;6.90;;;6.20;;
18142;SDS011;9197;50.930;3.140;2023-06-22T06:02:55;9.35;;;5.78;;
18142;SDS011;9197;50.930;3.140;2023-06-22T06:05:29;9.05;;;5.95;;
18142;SDS011;9197;50.930;3.140;2023-06-22T06:07:56;10.88;;;6.35;;
18142;SDS011;9197;50.930;3.140;2023-06-22T06:10:24;7.78;;;5.93;;
18142;SDS011;9197;50.930;3.140;2023-06-22T06:12:51;8.52;;;6.15;;
18142;SDS011;9197;50.930;3.140;2023-06-22T06:15:18;8.02;;;6.75;;
18142;SDS011;9197;50.930;3.140;2023-06-22T06:17:46;7.05;;;6.35;;
18142;SDS011;9197;50.930;3.140;2023-06-22T06:20:13;9.80;;;6.60;;
18142;SDS011;9197;50.930;3.140;2023-06-22T06:22:42;7.15;;;6.03;;
18142;SDS011;9197;50.930;3.140;2023-06-22T06:25:09;8.73;;;6.65;;
18142;SDS011;9197;50.930;3.140;2023-06-22T06:27:40;9.65;;;6.57;;
18142;SDS011;9197;50.930;3.140;2023-06-22T06:30:08;8.35;;;7.55;;
18142;SDS011;9197;50.930;3.140;2023-06-22T06:32:35;8.75;;;7.20;;
18142;SDS011;9197;50.930;3.140;2023-06-22T06:35:03;8.27;;;7.32;;
18142;SDS011;9197;50.930;3.140;2023-06-22T06:37:31;10.40;;;8.10;;
18142;SDS011;9197;50.930;3.140;2023-06-22T06:39:59;8.52;;;7.10;;
18142;SDS011;9197;50.930;3.140;2023-06-22T06:42:27;10.02;;;7.93;;
18142;SDS011;9197;50.930;3.140;2023-06-22T06:44:55;9.82;;;8.20;;
18142;SDS011;9197;50.930;3.140;2023-06-22T06:47:22;9.20;;;7.90;;
18142;SDS011;9197;50.930;3.140;2023-06-22T06:49:49;10.65;;;8.88;;
18142;SDS011;9197;50.930;3.140;2023-06-22T06:52:17;8.82;;;8.00;;
18142;SDS011;9197;50.930;3.140;2023-06-22T06:54:44;9.43;;;8.45;;
18142;SDS011;9197;50.930;3.140;2023-06-22T06:57:13;9.68;;;8.68;;
18142;SDS011;9197;50.930;3.140;2023-06-22T06:59:40;9.98;;;8.93;;
18142;SDS011;9197;50.930;3.140;2023-06-22T07:02:08;10.25;;;9.15;;
18142;SDS011;9197;50.930;3.140;2023-06-22T07:04:35;10.75;;;9.27;;
18142;SDS011;9197;50.930;3.140;2023-06-22T07:07:02;14.07;;;12.68;;
18142;SDS011;9197;50.930;3.140;2023-06-22T07:09:29;10.65;;;9.52;;
18142;SDS011;9197;50.930;3.140;2023-06-22T07:11:57;11.48;;;10.20;;
18142;SDS011;9197;50.930;3.140;2023-06-22T07:14:25;12.60;;;9.82;;
18142;SDS011;9197;50.930;3.140;2023-06-22T07:16:53;10.88;;;9.77;;
18142;SDS011;9197;50.930;3.140;2023-06-22T07:19:24;10.52;;;9.63;;
18142;SDS011;9197;50.930;3.140;2023-06-22T07:21:51;12.07;;;10.15;;
18142;SDS011;9197;50.930;3.140;2023-06-22T07:24:19;11.55;;;9.95;;
18142;SDS011;9197;50.930;3.140;2023-06-22T07:26:46;11.90;;;10.30;;
18142;SDS011;9197;50.930;3.140;2023-06-22T07:29:15;11.27;;;10.07;;
18142;SDS011;9197;50.930;3.140;2023-06-22T07:31:44;12.07;;;10.75;;
18142;SDS011;9197;50.930;3.140;2023-06-22T07:34:11;11.57;;;10.52;;
18142;SDS011;9197;50.930;3.140;2023-06-22T07:36:38;12.23;;;10.68;;
18142;SDS011;9197;50.930;3.140;2023-06-22T07:39:06;12.77;;;11.43;;
18142;SDS011;9197;50.930;3.140;2023-06-22T07:41:33;12.23;;;11.02;;
18142;SDS011;9197;50.930;3.140;2023-06-22T07:44:01;12.35;;;11.10;;
18142;SDS011;9197;50.930;3.140;2023-06-22T07:46:28;12.60;;;11.05;;
18142;SDS011;9197;50.930;3.140;2023-06-22T07:48:58;12.30;;;11.05;;
18142;SDS011;9197;50.930;3.140;2023-06-22T07:51:26;13.18;;;11.45;;
18142;SDS011;9197;50.930;3.140;2023-06-22T07:53:53;12.57;;;11.20;;
18142;SDS011;9197;50.930;3.140;2023-06-22T07:56:21;12.98;;;11.60;;
18142;SDS011;9197;50.930;3.140;2023-06-22T07:58:48;13.48;;;12.27;;
18142;SDS011;9197;50.930;3.140;2023-06-22T08:01:15;14.13;;;12.25;;
18142;SDS011;9197;50.930;3.140;2023-06-22T08:03:45;14.52;;;12.75;;
18142;SDS011;9197;50.930;3.140;2023-06-22T08:06:14;13.40;;;12.10;;
18142;SDS011;9197;50.930;3.140;2023-06-22T08:08:43;14.07;;;12.75;;
18142;SDS011;9197;50.930;3.140;2023-06-22T08:11:14;14.05;;;12.25;;
18142;SDS011;9197;50.930;3.140;2023-06-22T08:13:41;15.90;;;14.38;;
18142;SDS011;9197;50.930;3.140;2023-06-22T08:16:08;14.20;;;12.80;;
18142;SDS011;9197;50.930;3.140;2023-06-22T08:18:35;16.02;;;14.02;;
18142;SDS011;9197;50.930;3.140;2023-06-22T08:21:03;15.43;;;13.88;;
18142;SDS011;9197;50.930;3.140;2023-06-22T08:23:31;16.25;;;14.70;;
18142;SDS011;9197;50.930;3.140;2023-06-22T08:25:58;15.95;;;14.45;;
18142;SDS011;9197;50.930;3.140;2023-06-22T08:28:26;15.00;;;13.63;;
18142;SDS011;9197;50.930;3.140;2023-06-22T08:30:53;17.33;;;13.45;;
18142;SDS011;9197;50.930;3.140;2023-06-22T08:33:20;15.02;;;13.43;;
18142;SDS011;9197;50.930;3.140;2023-06-22T08:35:53;15.20;;;13.63;;
18142;SDS011;9197;50.930;3.140;2023-06-22T08:38:20;14.68;;;13.18;;
18142;SDS011;9197;50.930;3.140;2023-06-22T08:40:49;13.77;;;12.57;;
18142;SDS011;9197;50.930;3.140;2023-06-22T08:43:16;13.05;;;11.88;;
18142;SDS011;9197;50.930;3.140;2023-06-22T08:45:44;16.30;;;13.02;;
18142;SDS011;9197;50.930;3.140;2023-06-22T08:48:11;14.55;;;13.15;;
18142;SDS011;9197;50.930;3.140;2023-06-22T08:50:38;16.00;;;14.35;;
18142;SDS011;9197;50.930;3.140;2023-06-22T08:53:05;14.73;;;13.23;;
18142;SDS011;9197;50.930;3.140;2023-06-22T08:55:33;15.50;;;13.85;;
18142;SDS011;9197;50.930;3.140;2023-06-22T08:58:02;14.07;;;12.75;;
18142;SDS011;9197;50.930;3.140;2023-06-22T09:00:29;15.77;;;13.88;;
18142;SDS011;9197;50.930;3.140;2023-06-22T09:02:59;17.17;;;13.88;;
18142;SDS011;9197;50.930;3.140;2023-06-22T09:05:27;16.35;;;14.68;;
18142;SDS011;9197;50.930;3.140;2023-06-22T09:07:55;16.08;;;14.52;;
18142;SDS011;9197;50.930;3.140;2023-06-22T09:10:23;16.55;;;15.05;;
18142;SDS011;9197;50.930;3.140;2023-06-22T09:12:54;16.90;;;15.23;;
18142;SDS011;9197;50.930;3.140;2023-06-22T09:15:23;17.20;;;15.27;;
18142;SDS011;9197;50.930;3.140;2023-06-22T09:17:50;17.02;;;14.65;;
18142;SDS011;9197;50.930;3.140;2023-06-22T09:20:19;16.67;;;15.07;;
18142;SDS011;9197;50.930;3.140;2023-06-22T09:22:49;16.08;;;14.32;;
18142;SDS011;9197;50.930;3.140;2023-06-22T09:25:16;15.63;;;13.95;;
18142;SDS011;9197;50.930;3.140;2023-06-22T09:27:45;17.23;;;15.35;;
18142;SDS011;9197;50.930;3.140;2023-06-22T09:30:13;17.83;;;16.10;;
18142;SDS011;9197;50.930;3.140;2023-06-22T09:32:41;16.17;;;14.68;;
18142;SDS011;9197;50.930;3.140;2023-06-22T09:35:09;16.10;;;14.48;;
18142;SDS011;9197;50.930;3.140;2023-06-22T09:37:38;17.77;;;15.32;;
18142;SDS011;9197;50.930;3.140;2023-06-22T09:40:06;17.42;;;14.90;;
18142;SDS011;9197;50.930;3.140;2023-06-22T09:42:36;16.08;;;14.48;;
18142;SDS011;9197;50.930;3.140;2023-06-22T09:45:03;17.70;;;15.18;;
18142;SDS011;9197;50.930;3.140;2023-06-22T09:47:31;16.25;;;14.75;;
18142;SDS011;9197;50.930;3.140;2023-06-22T09:49:59;16.38;;;14.82;;
18142;SDS011;9197;50.930;3.140;2023-06-22T09:52:27;18.23;;;16.02;;
18142;SDS011;9197;50.930;3.140;2023-06-22T09:54:54;17.30;;;15.63;;
18142;SDS011;9197;50.930;3.140;2023-06-22T09:57:21;15.45;;;13.95;;
18142;SDS011;9197;50.930;3.140;2023-06-22T09:59:48;16.25;;;14.18;;
18142;SDS011;9197;50.930;3.140;2023-06-22T10:02:15;17.27;;;15.63;;
18142;SDS011;9197;50.930;3.140;2023-06-22T10:04:43;17.13;;;15.25;;
18142;SDS011;9197;50.930;3.140;2023-06-22T10:07:12;18.30;;;16.50;;
18142;SDS011;9197;50.930;3.140;2023-06-22T10:09:39;16.77;;;15.10;;
18142;SDS011;9197;50.930;3.140;2023-06-22T10:12:06;18.48;;;16.73;;
18142;SDS011;9197;50.930;3.140;2023-06-22T10:14:34;16.48;;;14.88;;
18142;SDS011;9197;50.930;3.140;2023-06-22T10:17:01;17.05;;;15.38;;
18142;SDS011;9197;50.930;3.140;2023-06-22T10:19:29;15.05;;;13.45;;
18142;SDS011;9197;50.930;3.140;2023-06-22T10:21:56;15.48;;;14.07;;
18142;SDS011;9197;50.930;3.140;2023-06-22T10:24:24;15.60;;;14.10;;
18142;SDS011;9197;50.930;3.140;2023-06-22T10:26:52;16.35;;;14.77;;
18142;SDS011;9197;50.930;3.140;2023-06-22T10:29:19;18.13;;;16.20;;
18142;SDS011;9197;50.930;3.140;2023-06-22T10:31:47;15.65;;;14.10;;
18142;SDS011;9197;50.930;3.140;2023-06-22T10:34:14;16.27;;;14.27;;
18142;SDS011;9197;50.930;3.140;2023-06-22T10:36:41;15.90;;;14.05;;
18142;SDS011;9197;50.930;3.140;2023-06-22T10:39:11;15.90;;;14.27;;
18142;SDS011;9197;50.930;3.140;2023-06-22T10:41:39;14.93;;;13.35;;
18142;SDS011;9197;50.930;3.140;2023-06-22T10:44:07;15.48;;;14.05;;
18142;SDS011;9197;50.930;3.140;2023-06-22T10:46:34;16.75;;;15.10;;
18142;SDS011;9197;50.930;3.140;2023-06-22T10:49:01;16.25;;;14.73;;
18142;SDS011;9197;50.930;3.140;2023-06-22T10:51:28;17.80;;;15.98;;
18142;SDS011;9197;50.930;3.140;2023-06-22T10:53:56;18.88;;;16.98;;
18142;SDS011;9197;50.930;3.140;2023-06-22T10:56:23;17.58;;;15.52;;
18142;SDS011;9197;50.930;3.140;2023-06-22T10:58:55;17.38;;;15.73;;
18142;SDS011;9197;50.930;3.140;2023-06-22T11:01:22;17.77;;;16.20;;
18142;SDS011;9197;50.930;3.140;2023-06-22T11:03:49;17.98;;;16.25;;
18142;SDS011;9197;50.930;3.140;2023-06-22T11:06:16;17.25;;;15.63;;
18142;SDS011;9197;50.930;3.140;2023-06-22T11:08:44;16.42;;;14.88;;
18142;SDS011;9197;50.930;3.140;2023-06-22T11:11:11;15.13;;;13.73;;
18142;SDS011;9197;50.930;3.140;2023-06-22T11:13:38;18.40;;;16.55;;
18142;SDS011;9197;50.930;3.140;2023-06-22T11:16:07;16.70;;;14.63;;
18142;SDS011;9197;50.930;3.140;2023-06-22T11:18:37;16.63;;;15.05;;
18142;SDS011;9197;50.930;3.140;2023-06-22T11:21:04;17.13;;;14.75;;
18142;SDS011;9197;50.930;3.140;2023-06-22T11:23:31;17.10;;;15.50;;
18142;SDS011;9197;50.930;3.140;2023-06-22T11:25:59;15.10;;;13.80;;
18142;SDS011;9197;50.930;3.140;2023-06-22T11:28:27;16.27;;;14.43;;
18142;SDS011;9197;50.930;3.140;2023-06-22T11:30:54;15.75;;;13.45;;
18142;SDS011;9197;50.930;3.140;2023-06-22T11:33:23;16.20;;;14.43;;
18142;SDS011;9197;50.930;3.140;2023-06-22T11:35:50;16.55;;;14.95;;
18142;SDS011;9197;50.930;3.140;2023-06-22T11:38:17;16.02;;;14.48;;
18142;SDS011;9197;50.930;3.140;2023-06-22T11:40:47;15.75;;;13.57;;
18142;SDS011;9197;50.930;3.140;2023-06-22T11:43:14;16.73;;;15.00;;
18142;SDS011;9197;50.930;3.140;2023-06-22T11:45:41;17.50;;;14.93;;
18142;SDS011;9197;50.930;3.140;2023-06-22T11:48:09;16.25;;;14.57;;
18142;SDS011;9197;50.930;3.140;2023-06-22T11:50:37;15.70;;;14.18;;
18142;SDS011;9197;50.930;3.140;2023-06-22T11:53:04;17.50;;;14.15;;
18142;SDS011;9197;50.930;3.140;2023-06-22T11:55:31;16.85;;;14.98;;
18142;SDS011;9197;50.930;3.140;2023-06-22T11:57:59;17.23;;;15.52;;
18142;SDS011;9197;50.930;3.140;2023-06-22T12:00:28;17.80;;;16.00;;
18142;SDS011;9197;50.930;3.140;2023-06-22T12:02:55;19.30;;;17.27;;
18142;SDS011;9197;50.930;3.140;2023-06-22T12:05:22;19.17;;;15.70;;
18142;SDS011;9197;50.930;3.140;2023-06-22T12:07:52;16.88;;;15.07;;
18142;SDS011;9197;50.930;3.140;2023-06-22T12:10:20;19.80;;;16.35;;
18142;SDS011;9197;50.930;3.140;2023-06-22T12:12:47;17.08;;;15.40;;
18142;SDS011;9197;50.930;3.140;2023-06-22T12:15:14;19.80;;;17.08;;
18142;SDS011;9197;50.930;3.140;2023-06-22T12:17:41;17.92;;;16.33;;
18142;SDS011;9197;50.930;3.140;2023-06-22T12:20:09;20.33;;;16.38;;
18142;SDS011;9197;50.930;3.140;2023-06-22T12:22:36;17.15;;;15.20;;
18142;SDS011;9197;50.930;3.140;2023-06-22T12:25:05;18.88;;;16.85;;
18142;SDS011;9197;50.930;3.140;2023-06-22T12:27:33;16.60;;;15.07;;
18142;SDS011;9197;50.930;3.140;2023-06-22T12:30:00;16.17;;;14.45;;
18142;SDS011;9197;50.930;3.140;2023-06-22T12:32:28;17.65;;;16.10;;
18142;SDS011;9197;50.930;3.140;2023-06-22T12:34:55;15.40;;;13.80;;
18142;SDS011;9197;50.930;3.140;2023-06-22T12:37:23;17.80;;;15.90;;
18142;SDS011;9197;50.930;3.140;2023-06-22T12:39:50;17.00;;;15.30;;
18142;SDS011;9197;50.930;3.140;2023-06-22T12:42:19;16.65;;;14.95;;
18142;SDS011;9197;50.930;3.140;2023-06-22T12:44:46;17.95;;;16.25;;
18142;SDS011;9197;50.930;3.140;2023-06-22T12:47:13;18.35;;;16.45;;
18142;SDS011;9197;50.930;3.140;2023-06-22T12:49:40;16.35;;;14.75;;
18142;SDS011;9197;50.930;3.140;2023-06-22T12:52:10;18.67;;;16.80;;
18142;SDS011;9197;50.930;3.140;2023-06-22T12:54:38;15.77;;;14.10;;
18142;SDS011;9197;50.930;3.140;2023-06-22T12:57:05;16.27;;;14.57;;
18142;SDS011;9197;50.930;3.140;2023-06-22T12:59:34;16.35;;;14.77;;
18142;SDS011;9197;50.930;3.140;2023-06-22T13:02:01;18.20;;;16.50;;
18142;SDS011;9197;50.930;3.140;2023-06-22T13:04:28;20.05;;;18.02;;
18142;SDS011;9197;50.930;3.140;2023-06-22T13:06:55;19.92;;;17.50;;
18142;SDS011;9197;50.930;3.140;2023-06-22T13:09:23;23.30;;;21.00;;
18142;SDS011;9197;50.930;3.140;2023-06-22T13:11:50;20.30;;;18.33;;
18142;SDS011;9197;50.930;3.140;2023-06-22T13:14:18;23.10;;;20.88;;
18142;SDS011;9197;50.930;3.140;2023-06-22T13:16:46;23.30;;;20.05;;
18142;SDS011;9197;50.930;3.140;2023-06-22T13:19:13;23.67;;;20.85;;
18142;SDS011;9197;50.930;3.140;2023-06-22T13:21:40;21.45;;;19.17;;
18142;SDS011;9197;50.930;3.140;2023-06-22T13:24:07;21.95;;;19.70;;
18142;SDS011;9197;50.930;3.140;2023-06-22T13:26:34;22.73;;;20.23;;
18142;SDS011;9197;50.930;3.140;2023-06-22T13:29:01;22.05;;;18.77;;
18142;SDS011;9197;50.930;3.140;2023-06-22T13:31:28;20.23;;;18.25;;
18142;SDS011;9197;50.930;3.140;2023-06-22T13:33:56;20.83;;;18.67;;
18142;SDS011;9197;50.930;3.140;2023-06-22T13:36:23;19.75;;;17.67;;
18142;SDS011;9197;50.930;3.140;2023-06-22T13:38:50;19.58;;;17.75;;
18142;SDS011;9197;50.930;3.140;2023-06-22T13:41:17;18.27;;;16.48;;
18142;SDS011;9197;50.930;3.140;2023-06-22T13:43:44;17.77;;;15.88;;
18142;SDS011;9197;50.930;3.140;2023-06-22T13:46:11;17.45;;;15.70;;
18142;SDS011;9197;50.930;3.140;2023-06-22T13:48:37;16.40;;;14.75;;
18142;SDS011;9197;50.930;3.140;2023-06-22T13:51:06;16.65;;;15.05;;
18142;SDS011;9197;50.930;3.140;2023-06-22T13:53:33;16.73;;;14.35;;
18142;SDS011;9197;50.930;3.140;2023-06-22T13:56:00;15.88;;;14.32;;
18142;SDS011;9197;50.930;3.140;2023-06-22T13:58:27;14.02;;;12.70;;
18142;SDS011;9197;50.930;3.140;2023-06-22T14:00:53;16.88;;;15.07;;
18142;SDS011;9197;50.930;3.140;2023-06-22T14:03:20;17.13;;;13.98;;
18142;SDS011;9197;50.930;3.140;2023-06-22T14:05:47;16.10;;;13.15;;
18142;SDS011;9197;50.930;3.140;2023-06-22T14:08:16;16.13;;;13.32;;
18142;SDS011;9197;50.930;3.140;2023-06-22T14:10:45;15.98;;;14.38;;
18142;SDS011;9197;50.930;3.140;2023-06-22T14:13:12;16.65;;;14.88;;
18142;SDS011;9197;50.930;3.140;2023-06-22T14:15:39;19.00;;;15.35;;
18142;SDS011;9197;50.930;3.140;2023-06-22T14:18:06;15.90;;;14.27;;
18142;SDS011;9197;50.930;3.140;2023-06-22T14:20:33;13.57;;;12.32;;
18142;SDS011;9197;50.930;3.140;2023-06-22T14:23:01;17.60;;;13.82;;
18142;SDS011;9197;50.930;3.140;2023-06-22T14:25:30;12.35;;;11.13;;
18142;SDS011;9197;50.930;3.140;2023-06-22T14:27:57;11.50;;;10.32;;
18142;SDS011;9197;50.930;3.140;2023-06-22T14:30:24;11.15;;;10.05;;
18142;SDS011;9197;50.930;3.140;2023-06-22T14:32:51;12.63;;;10.30;;
18142;SDS011;9197;50.930;3.140;2023-06-22T14:35:18;14.15;;;12.60;;
18142;SDS011;9197;50.930;3.140;2023-06-22T14:37:46;14.90;;;13.30;;
18142;SDS011;9197;50.930;3.140;2023-06-22T14:40:13;13.38;;;11.85;;
18142;SDS011;9197;50.930;3.140;2023-06-22T14:42:42;11.55;;;10.38;;
18142;SDS011;9197;50.930;3.140;2023-06-22T14:45:09;11.10;;;9.98;;
18142;SDS011;9197;50.930;3.140;2023-06-22T14:47:36;10.93;;;9.82;;